sensor_id;sensor_type;location;lat;lon;timestamp;pressure;altitude;pressure_sealevel;temperature;humidity
19845;BME280;10083;51.038;7.012;2023-08-17T00:25:03;147608.97;;;21.83;nan
19845;BME280;10083;51.038;7.012;2023-08-17T00:28:08;147403.38;;;21.84;nan
19845;BME280;10083;51.038;7.012;2023-08-17T00:31:01;146633.75;;;21.73;nan
19845;BME280;10083;51.038;7.012;2023-08-17T00:33:42;146103.91;;;21.80;nan
19845;BME280;10083;51.038;7.012;2023-08-17T00:36:29;145458.03;;;21.83;nan
19845;BME280;10083;51.038;7.012;2023-08-17T00:39:23;145158.13;;;21.76;nan
19845;BME280;10083;51.038;7.012;2023-08-17T00:42:08;144490.19;;;21.64;nan
19845;BME280;10083;51.038;7.012;2023-08-17T00:45:03;143743.53;;;21.49;nan
19845;BME280;10083;51.038;7.012;2023-08-17T00:49:28;143900.47;;;21.59;nan
19845;BME280;10083;51.038;7.012;2023-08-17T00:55:47;142627.88;;;21.41;nan
19845;BME280;10083;51.038;7.012;2023-08-17T01:11:29;141854.34;;;21.01;nan
19845;BME280;10083;51.038;7.012;2023-08-17T01:14:39;142463.59;;;21.15;nan
19845;BME280;10083;51.038;7.012;2023-08-17T01:17:17;142789.75;;;21.43;nan
19845;BME280;10083;51.038;7.012;2023-08-17T01:19:52;142680.53;;;21.49;nan
19845;BME280;10083;51.038;7.012;2023-08-17T01:22:48;142339.75;;;21.38;nan
19845;BME280;10083;51.038;7.012;2023-08-17T01:25:42;141866.88;;;21.41;nan
19845;BME280;10083;51.038;7.012;2023-08-17T01:29:33;141040.06;;;21.23;nan
19845;BME280;10083;51.038;7.012;2023-08-17T01:32:30;140605.78;;;21.30;nan
19845;BME280;10083;51.038;7.012;2023-08-17T01:35:13;140310.50;;;21.29;nan
19845;BME280;10083;51.038;7.012;2023-08-17T01:38:12;139472.31;;;21.10;nan
19845;BME280;10083;51.038;7.012;2023-08-17T01:40:47;139471.53;;;21.29;nan
19845;BME280;10083;51.038;7.012;2023-08-17T01:44:06;139395.06;;;21.43;nan
19845;BME280;10083;51.038;7.012;2023-08-17T01:46:59;138678.28;;;21.28;nan
19845;BME280;10083;51.038;7.012;2023-08-17T01:49:49;138389.94;;;21.27;nan
19845;BME280;10083;51.038;7.012;2023-08-17T02:21:10;136245.47;;;21.17;nan
19845;BME280;10083;51.038;7.012;2023-08-17T02:23:44;135850.66;;;21.32;nan
19845;BME280;10083;51.038;7.012;2023-08-17T02:26:19;135448.78;;;21.44;nan
19845;BME280;10083;51.038;7.012;2023-08-17T02:29:00;135428.88;;;21.39;nan
19845;BME280;10083;51.038;7.012;2023-08-17T02:43:18;134489.88;;;20.98;nan
19845;BME280;10083;51.038;7.012;2023-08-17T02:45:56;134917.84;;;21.12;nan
19845;BME280;10083;51.038;7.012;2023-08-17T02:48:44;134722.13;;;21.20;nan
19845;BME280;10083;51.038;7.012;2023-08-17T02:51:16;134601.59;;;21.23;nan
19845;BME280;10083;51.038;7.012;2023-08-17T02:54:19;133989.50;;;21.38;nan
19845;BME280;10083;51.038;7.012;2023-08-17T02:57:33;133207.78;;;21.44;nan
19845;BME280;10083;51.038;7.012;2023-08-17T03:00:37;132654.47;;;21.50;nan
19845;BME280;10083;51.038;7.012;2023-08-17T03:03:27;131757.66;;;21.53;nan
19845;BME280;10083;51.038;7.012;2023-08-17T03:06:38;132624.66;;;21.55;nan
19845;BME280;10083;51.038;7.012;2023-08-17T03:10:02;133028.09;;;21.44;nan
19845;BME280;10083;51.038;7.012;2023-08-17T03:13:14;134346.41;;;21.26;nan
19845;BME280;10083;51.038;7.012;2023-08-17T03:16:23;136242.56;;;21.32;nan
19845;BME280;10083;51.038;7.012;2023-08-17T03:19:27;137477.94;;;21.32;nan
19845;BME280;10083;51.038;7.012;2023-08-17T03:22:18;138135.31;;;21.24;nan
19845;BME280;10083;51.038;7.012;2023-08-17T03:25:28;138819.88;;;21.20;nan
19845;BME280;10083;51.038;7.012;2023-08-17T03:28:00;138980.81;;;21.05;nan
19845;BME280;10083;51.038;7.012;2023-08-17T03:30:49;139220.97;;;21.10;nan
19845;BME280;10083;51.038;7.012;2023-08-17T03:37:21;139337.00;;;21.04;nan
19845;BME280;10083;51.038;7.012;2023-08-17T14:52:47;103075.75;;;28.85;nan
19845;BME280;10083;51.038;7.012;2023-08-17T15:24:50;102480.91;;;30.16;nan
19845;BME280;10083;51.038;7.012;2023-08-17T15:30:29;102438.69;;;31.26;nan
19845;BME280;10083;51.038;7.012;2023-08-17T15:33:23;102514.69;;;30.89;nan
19845;BME280;10083;51.038;7.012;2023-08-17T17:12:09;105494.75;;;25.76;nan
19845;BME280;10083;51.038;7.012;2023-08-17T17:15:25;105457.13;;;25.84;nan
19845;BME280;10083;51.038;7.012;2023-08-17T17:17:53;105400.63;;;25.62;nan
19845;BME280;10083;51.038;7.012;2023-08-17T17:20:24;105379.66;;;25.50;nan
19845;BME280;10083;51.038;7.012;2023-08-17T17:22:56;105377.06;;;25.38;nan
19845;BME280;10083;51.038;7.012;2023-08-17T17:29:08;105582.31;;;25.13;nan
19845;BME280;10083;51.038;7.012;2023-08-17T17:32:22;105729.75;;;24.70;nan
19845;BME280;10083;51.038;7.012;2023-08-17T17:34:56;105912.59;;;24.81;nan
19845;BME280;10083;51.038;7.012;2023-08-17T17:37:41;105988.50;;;24.77;nan
19845;BME280;10083;51.038;7.012;2023-08-17T17:41:05;106039.69;;;24.55;nan
19845;BME280;10083;51.038;7.012;2023-08-17T17:48:29;106279.16;;;24.47;nan
19845;BME280;10083;51.038;7.012;2023-08-17T17:54:41;106481.78;;;24.18;nan
19845;BME280;10083;51.038;7.012;2023-08-17T18:01:18;107073.81;;;24.15;nan
19845;BME280;10083;51.038;7.012;2023-08-17T18:14:44;106930.06;;;23.54;nan
19845;BME280;10083;51.038;7.012;2023-08-17T18:17:57;107019.50;;;23.52;nan
19845;BME280;10083;51.038;7.012;2023-08-17T18:20:36;106921.25;;;23.27;nan
19845;BME280;10083;51.038;7.012;2023-08-17T21:49:58;120347.56;;;21.12;nan
19845;BME280;10083;51.038;7.012;2023-08-17T21:56:18;120993.47;;;21.02;nan
19845;BME280;10083;51.038;7.012;2023-08-17T21:58:48;121311.13;;;21.06;nan
19845;BME280;10083;51.038;7.012;2023-08-17T22:01:33;121568.22;;;21.08;nan
19845;BME280;10083;51.038;7.012;2023-08-17T22:04:54;121719.69;;;20.98;nan
19845;BME280;10083;51.038;7.012;2023-08-17T22:38:26;124880.06;;;20.91;nan
19845;BME280;10083;51.038;7.012;2023-08-17T22:41:31;125294.78;;;20.91;nan
19845;BME280;10083;51.038;7.012;2023-08-17T22:44:02;125270.69;;;20.90;nan
19845;BME280;10083;51.038;7.012;2023-08-17T22:46:55;125419.31;;;20.84;nan
19845;BME280;10083;51.038;7.012;2023-08-17T22:50:31;125514.19;;;20.81;nan
19845;BME280;10083;51.038;7.012;2023-08-17T23:04:58;125693.44;;;20.55;nan
